Roches Point, Ireland

6:34 AM GMT on February 14, 2016 (GMT +0000)
cork | | Change Station
CLOSE
Current Station
Personal Weather Station
Location: Midleton, CORK
Elevation: 23 ft
Nearby Weather Stations

Elev 23 ft 51.92 °N, 8.18 °W | Updated 1 minute ago

Mostly Cloudy
Mostly Cloudy
41.9 °F
Feels Like 40 °F
N
3.1
Wind Variable Wind from North
Gusts 9.2 mph

Today
High -- | Low -- °F
--% Chance of Precip.
Yesterday
High -- | Low -- °F
Precip. -- in
Pressure 29.24 in
Visibility 6.2 miles
Clouds Few 900 ft
Mostly Cloudy 1200 ft
Mostly Cloudy 3000 ft
Windchill 40 °F
Dew Point 36 °F
Humidity 81%
Rainfall 0.07 in
Snow Depth Not available.
7:50 AM 5:44 PM
Waxing Crescent, 38% visible
METAR EICK 140630Z 04016KT 9999 FEW009 BKN012 BKN030 04/03 Q0990 TEMPO 3000 BKN003
Pressure 29.24 in
Visibility 6.2 miles
Clouds Few 900 ft
Mostly Cloudy 1200 ft
Mostly Cloudy 3000 ft
Windchill 40 °F
Dew Point 36 °F
Humidity 81%
Rainfall 0.07 in
Snow Depth Not available.
7:50 AM 5:44 PM
Waxing Crescent, 38% visible
METAR EICK 140630Z 04016KT 9999 FEW009 BKN012 BKN030 04/03 Q0990 TEMPO 3000 BKN003

10-Day Weather Forecast

Almanac

Astronomy

Feb. 14, 2016 Rise Set
Actual Time
Civil Twilight
Nautical Twilight
Astronomical Twilight
Moon
Length of Visible Light
Length of Day
Tomorrow will be .
, % of the Moon is Illuminated

Today's Extremes

Country Highs Country Lows

Community

WunderPhotos

Upload Photos

1,892,757 photos uploaded!

WunderBlog® & News

Nearby

Air Quality

  Air Quality AQ Index Pollutant
Not available.

Snow Depth

Station Depth Elevation

Earthquake Activity

City Distance Mag. Time & Date
Minimum magnitude displayed is 2.5.

Coastal Water Temperatures

Place Temperature

Stations

Nearby Weather Stations

Station Location Temp. Windchill Dew Point Humidity Wind Precip. Elev Updated Type